sensor_id;sensor_type;location;lat;lon;timestamp;pressure;altitude;pressure_sealevel;temperature;humidity
20983;BME280;10650;51.528;6.748;2023-01-28T00:01:32;102682.84;;;4.23;66.53
20983;BME280;10650;51.528;6.748;2023-01-28T00:04:00;102680.34;;;4.26;65.78
20983;BME280;10650;51.528;6.748;2023-01-28T00:06:27;102674.16;;;4.26;66.41
20983;BME280;10650;51.528;6.748;2023-01-28T00:08:55;102673.41;;;4.28;66.81
20983;BME280;10650;51.528;6.748;2023-01-28T00:11:23;102673.28;;;4.27;66.17
20983;BME280;10650;51.528;6.748;2023-01-28T00:13:53;102667.78;;;4.22;65.99
20983;BME280;10650;51.528;6.748;2023-01-28T00:16:21;102662.44;;;4.21;66.09
20983;BME280;10650;51.528;6.748;2023-01-28T00:18:49;102664.72;;;4.13;65.91
20983;BME280;10650;51.528;6.748;2023-01-28T00:21:17;102674.97;;;4.07;66.04
20983;BME280;10650;51.528;6.748;2023-01-28T00:23:49;102682.22;;;4.11;66.84
20983;BME280;10650;51.528;6.748;2023-01-28T00:26:18;102676.88;;;4.09;66.81
20983;BME280;10650;51.528;6.748;2023-01-28T00:28:46;102673.88;;;4.02;66.50
20983;BME280;10650;51.528;6.748;2023-01-28T00:31:17;102674.06;;;4.06;66.36
20983;BME280;10650;51.528;6.748;2023-01-28T00:33:47;102677.69;;;4.08;66.96
20983;BME280;10650;51.528;6.748;2023-01-28T00:36:18;102678.41;;;4.04;66.45
20983;BME280;10650;51.528;6.748;2023-01-28T00:38:49;102680.19;;;4.05;66.96
20983;BME280;10650;51.528;6.748;2023-01-28T00:41:18;102680.06;;;4.02;66.87
20983;BME280;10650;51.528;6.748;2023-01-28T00:43:48;102674.75;;;4.02;66.92
20983;BME280;10650;51.528;6.748;2023-01-28T00:46:18;102674.06;;;4.06;67.25
20983;BME280;10650;51.528;6.748;2023-01-28T00:48:47;102675.97;;;4.09;66.86
20983;BME280;10650;51.528;6.748;2023-01-28T00:51:16;102679.97;;;4.01;66.99
20983;BME280;10650;51.528;6.748;2023-01-28T00:53:45;102677.53;;;4.05;67.22
20983;BME280;10650;51.528;6.748;2023-01-28T00:56:15;102684.44;;;4.02;66.47
20983;BME280;10650;51.528;6.748;2023-01-28T00:58:43;102680.66;;;3.96;66.55
20983;BME280;10650;51.528;6.748;2023-01-28T01:01:14;102679.91;;;3.99;67.48
20983;BME280;10650;51.528;6.748;2023-01-28T01:03:43;102689.44;;;3.95;66.59
20983;BME280;10650;51.528;6.748;2023-01-28T01:06:15;102693.50;;;3.89;67.23
20983;BME280;10650;51.528;6.748;2023-01-28T01:08:42;102692.38;;;3.84;66.79
20983;BME280;10650;51.528;6.748;2023-01-28T01:11:15;102684.06;;;3.76;67.11
20983;BME280;10650;51.528;6.748;2023-01-28T01:13:45;102691.78;;;3.71;67.46
20983;BME280;10650;51.528;6.748;2023-01-28T01:16:16;102689.72;;;3.66;67.66
20983;BME280;10650;51.528;6.748;2023-01-28T01:18:45;102689.72;;;3.66;67.34
20983;BME280;10650;51.528;6.748;2023-01-28T01:21:14;102695.31;;;3.72;67.40
20983;BME280;10650;51.528;6.748;2023-01-28T01:23:43;102691.78;;;3.71;67.43
20983;BME280;10650;51.528;6.748;2023-01-28T01:26:12;102695.38;;;3.73;67.71
20983;BME280;10650;51.528;6.748;2023-01-28T01:28:40;102696.53;;;3.78;67.58
20983;BME280;10650;51.528;6.748;2023-01-28T01:31:11;102697.44;;;3.79;67.45
20983;BME280;10650;51.528;6.748;2023-01-28T01:33:40;102695.16;;;3.69;66.67
20983;BME280;10650;51.528;6.748;2023-01-28T01:36:11;102711.03;;;3.69;66.99
20983;BME280;10650;51.528;6.748;2023-01-28T01:38:39;102711.75;;;3.66;67.26
20983;BME280;10650;51.528;6.748;2023-01-28T01:41:22;102708.91;;;3.61;66.99
20983;BME280;10650;51.528;6.748;2023-01-28T01:43:52;102714.19;;;3.61;67.44
20983;BME280;10650;51.528;6.748;2023-01-28T01:46:23;102707.88;;;3.59;67.02
20983;BME280;10650;51.528;6.748;2023-01-28T01:48:54;102707.28;;;3.65;67.46
20983;BME280;10650;51.528;6.748;2023-01-28T01:51:27;102709.94;;;3.65;66.51
20983;BME280;10650;51.528;6.748;2023-01-28T01:53:58;102711.91;;;3.69;66.71
20983;BME280;10650;51.528;6.748;2023-01-28T01:56:29;102720.00;;;3.72;66.73
20983;BME280;10650;51.528;6.748;2023-01-28T01:59:00;102720.16;;;3.75;66.76
20983;BME280;10650;51.528;6.748;2023-01-28T02:01:29;102716.75;;;3.78;66.40
20983;BME280;10650;51.528;6.748;2023-01-28T02:04:03;102722.91;;;3.77;66.46
20983;BME280;10650;51.528;6.748;2023-01-28T02:06:35;102717.75;;;3.80;66.12
20983;BME280;10650;51.528;6.748;2023-01-28T02:09:06;102724.53;;;3.75;66.49
20983;BME280;10650;51.528;6.748;2023-01-28T02:11:35;102723.56;;;3.73;65.65
20983;BME280;10650;51.528;6.748;2023-01-28T02:14:04;102719.91;;;3.71;65.72
20983;BME280;10650;51.528;6.748;2023-01-28T02:16:33;102729.69;;;3.72;65.35
20983;BME280;10650;51.528;6.748;2023-01-28T02:19:01;102733.38;;;3.75;65.37
20983;BME280;10650;51.528;6.748;2023-01-28T02:21:55;102737.00;;;3.77;66.20
20983;BME280;10650;51.528;6.748;2023-01-28T02:27:28;102720.56;;;3.83;65.71
20983;BME280;10650;51.528;6.748;2023-01-28T02:30:04;102725.78;;;3.81;65.97
20983;BME280;10650;51.528;6.748;2023-01-28T02:32:39;102723.28;;;3.85;65.92
20983;BME280;10650;51.528;6.748;2023-01-28T02:35:13;102720.94;;;3.91;66.27
20983;BME280;10650;51.528;6.748;2023-01-28T02:37:45;102722.00;;;3.94;66.09
20983;BME280;10650;51.528;6.748;2023-01-28T02:40:19;102714.16;;;3.96;65.84
20983;BME280;10650;51.528;6.748;2023-01-28T02:42:49;102730.47;;;3.87;65.07
20983;BME280;10650;51.528;6.748;2023-01-28T02:45:21;102725.31;;;3.90;65.64
20983;BME280;10650;51.528;6.748;2023-01-28T02:47:49;102717.53;;;3.93;65.63
20983;BME280;10650;51.528;6.748;2023-01-28T02:50:27;102714.97;;;3.95;65.83
20983;BME280;10650;51.528;6.748;2023-01-28T02:53:10;102711.34;;;3.93;65.51
20983;BME280;10650;51.528;6.748;2023-01-28T02:56:05;102721.00;;;3.92;66.23
20983;BME280;10650;51.528;6.748;2023-01-28T02:58:38;102717.31;;;3.89;65.35
20983;BME280;10650;51.528;6.748;2023-01-28T03:01:16;102713.75;;;3.88;65.08
20983;BME280;10650;51.528;6.748;2023-01-28T03:03:57;102716.31;;;3.87;65.19
20983;BME280;10650;51.528;6.748;2023-01-28T03:06:29;102707.47;;;3.86;65.06
20983;BME280;10650;51.528;6.748;2023-01-28T03:09:02;102709.31;;;3.87;65.07
20983;BME280;10650;51.528;6.748;2023-01-28T03:11:52;102714.00;;;3.93;64.92
20983;BME280;10650;51.528;6.748;2023-01-28T03:14:39;102707.31;;;4.01;65.68
20983;BME280;10650;51.528;6.748;2023-01-28T03:17:31;102710.75;;;3.98;64.02
20983;BME280;10650;51.528;6.748;2023-01-28T03:20:19;102712.31;;;3.95;63.97
20983;BME280;10650;51.528;6.748;2023-01-28T03:23:08;102708.31;;;3.85;64.21
20983;BME280;10650;51.528;6.748;2023-01-28T03:25:58;102710.13;;;3.86;65.07
20983;BME280;10650;51.528;6.748;2023-01-28T03:28:46;102707.69;;;3.91;65.04
20983;BME280;10650;51.528;6.748;2023-01-28T03:31:34;102704.91;;;3.88;64.02
20983;BME280;10650;51.528;6.748;2023-01-28T03:34:22;102709.97;;;3.83;64.16
20983;BME280;10650;51.528;6.748;2023-01-28T03:37:07;102714.59;;;3.87;64.44
20983;BME280;10650;51.528;6.748;2023-01-28T03:39:36;102719.97;;;3.89;64.04
20983;BME280;10650;51.528;6.748;2023-01-28T03:42:06;102717.97;;;3.85;63.53
20983;BME280;10650;51.528;6.748;2023-01-28T03:44:34;102719.72;;;3.84;63.79
20983;BME280;10650;51.528;6.748;2023-01-28T03:47:17;102725.84;;;3.83;63.27
20983;BME280;10650;51.528;6.748;2023-01-28T03:49:48;102724.25;;;3.87;63.44
20983;BME280;10650;51.528;6.748;2023-01-28T03:52:18;102721.94;;;3.93;63.69
20983;BME280;10650;51.528;6.748;2023-01-28T03:54:47;102723.72;;;3.94;63.41
20983;BME280;10650;51.528;6.748;2023-01-28T03:57:15;102728.72;;;3.88;62.80
20983;BME280;10650;51.528;6.748;2023-01-28T03:59:43;102729.00;;;3.76;62.75
20983;BME280;10650;51.528;6.748;2023-01-28T04:02:11;102729.81;;;3.75;62.77
20983;BME280;10650;51.528;6.748;2023-01-28T04:04:39;102724.16;;;3.67;62.34
20983;BME280;10650;51.528;6.748;2023-01-28T04:07:11;102724.97;;;3.66;63.18
20983;BME280;10650;51.528;6.748;2023-01-28T04:09:41;102725.22;;;3.71;63.58
20983;BME280;10650;51.528;6.748;2023-01-28T04:12:09;102735.19;;;3.76;63.60
20983;BME280;10650;51.528;6.748;2023-01-28T04:14:37;102733.28;;;3.74;63.46
20983;BME280;10650;51.528;6.748;2023-01-28T04:17:06;102734.38;;;3.77;62.71
20983;BME280;10650;51.528;6.748;2023-01-28T04:19:36;102738.16;;;3.83;62.35
20983;BME280;10650;51.528;6.748;2023-01-28T04:22:05;102733.69;;;3.81;62.27
20983;BME280;10650;51.528;6.748;2023-01-28T04:24:35;102738.59;;;3.74;62.02
20983;BME280;10650;51.528;6.748;2023-01-28T04:27:03;102735.19;;;3.76;62.21
20983;BME280;10650;51.528;6.748;2023-01-28T04:29:30;102736.94;;;3.76;61.90
20983;BME280;10650;51.528;6.748;2023-01-28T04:31:58;102734.16;;;3.73;61.97
20983;BME280;10650;51.528;6.748;2023-01-28T04:34:26;102742.06;;;3.73;62.50
20983;BME280;10650;51.528;6.748;2023-01-28T04:36:53;102741.75;;;3.67;62.35
20983;BME280;10650;51.528;6.748;2023-01-28T04:39:21;102739.34;;;3.71;62.58
20983;BME280;10650;51.528;6.748;2023-01-28T04:41:50;102738.50;;;3.72;62.30
20983;BME280;10650;51.528;6.748;2023-01-28T04:44:18;102730.34;;;3.68;61.42
20983;BME280;10650;51.528;6.748;2023-01-28T04:46:46;102737.03;;;3.61;62.20
20983;BME280;10650;51.528;6.748;2023-01-28T04:49:13;102736.16;;;3.60;62.18
20983;BME280;10650;51.528;6.748;2023-01-28T04:51:41;102732.53;;;3.58;61.06
20983;BME280;10650;51.528;6.748;2023-01-28T04:54:09;102735.00;;;3.55;61.23
20983;BME280;10650;51.528;6.748;2023-01-28T04:56:36;102744.66;;;3.55;61.68
20983;BME280;10650;51.528;6.748;2023-01-28T04:59:06;102738.84;;;3.44;61.66
20983;BME280;10650;51.528;6.748;2023-01-28T05:01:33;102738.91;;;3.45;62.10
20983;BME280;10650;51.528;6.748;2023-01-28T05:04:01;102738.91;;;3.45;62.28
20983;BME280;10650;51.528;6.748;2023-01-28T05:06:31;102730.31;;;3.50;62.11
20983;BME280;10650;51.528;6.748;2023-01-28T05:08:59;102736.28;;;3.45;61.61
20983;BME280;10650;51.528;6.748;2023-01-28T05:11:27;102737.00;;;3.43;61.82
20983;BME280;10650;51.528;6.748;2023-01-28T05:13:54;102730.56;;;3.38;61.85
20983;BME280;10650;51.528;6.748;2023-01-28T05:16:24;102732.00;;;3.31;62.24
20983;BME280;10650;51.528;6.748;2023-01-28T05:18:51;102730.41;;;3.35;62.10
20983;BME280;10650;51.528;6.748;2023-01-28T05:21:19;102733.56;;;3.44;61.91
20983;BME280;10650;51.528;6.748;2023-01-28T05:23:47;102731.97;;;3.47;61.45
20983;BME280;10650;51.528;6.748;2023-01-28T05:26:14;102737.41;;;3.51;61.36
20983;BME280;10650;51.528;6.748;2023-01-28T05:28:42;102740.91;;;3.50;61.66
20983;BME280;10650;51.528;6.748;2023-01-28T05:31:10;102741.13;;;3.54;61.50
20983;BME280;10650;51.528;6.748;2023-01-28T05:33:39;102738.56;;;3.56;61.50
20983;BME280;10650;51.528;6.748;2023-01-28T05:36:07;102737.25;;;3.47;60.75
20983;BME280;10650;51.528;6.748;2023-01-28T05:38:35;102746.94;;;3.47;60.94
20983;BME280;10650;51.528;6.748;2023-01-28T05:41:03;102744.78;;;3.40;61.35
20983;BME280;10650;51.528;6.748;2023-01-28T05:43:30;102752.44;;;3.35;61.44
20983;BME280;10650;51.528;6.748;2023-01-28T05:45:58;102750.72;;;3.36;61.34
20983;BME280;10650;51.528;6.748;2023-01-28T05:48:26;102768.06;;;3.31;61.33
20983;BME280;10650;51.528;6.748;2023-01-28T05:50:55;102765.50;;;3.32;61.87
20983;BME280;10650;51.528;6.748;2023-01-28T05:53:23;102757.66;;;3.34;62.11
20983;BME280;10650;51.528;6.748;2023-01-28T05:55:52;102762.63;;;3.27;61.95
20983;BME280;10650;51.528;6.748;2023-01-28T05:58:20;102761.88;;;3.30;61.98
20983;BME280;10650;51.528;6.748;2023-01-28T06:00:48;102765.50;;;3.32;62.34
20983;BME280;10650;51.528;6.748;2023-01-28T06:03:15;102757.66;;;3.34;62.09
20983;BME280;10650;51.528;6.748;2023-01-28T06:05:43;102762.34;;;3.39;62.34
20983;BME280;10650;51.528;6.748;2023-01-28T06:08:12;102755.00;;;3.34;61.96
20983;BME280;10650;51.528;6.748;2023-01-28T06:10:40;102767.00;;;3.27;61.57
20983;BME280;10650;51.528;6.748;2023-01-28T06:13:08;102762.03;;;3.33;61.98
20983;BME280;10650;51.528;6.748;2023-01-28T06:15:35;102761.88;;;3.30;61.89
20983;BME280;10650;51.528;6.748;2023-01-28T06:18:03;102758.44;;;3.31;61.63
20983;BME280;10650;51.528;6.748;2023-01-28T06:20:31;102752.38;;;3.34;61.79
20983;BME280;10650;51.528;6.748;2023-01-28T06:22:59;102751.41;;;3.32;61.47
20983;BME280;10650;51.528;6.748;2023-01-28T06:25:28;102762.13;;;3.35;61.98
20983;BME280;10650;51.528;6.748;2023-01-28T06:27:56;102770.13;;;3.36;62.20
20983;BME280;10650;51.528;6.748;2023-01-28T06:30:23;102778.78;;;3.34;61.49
20983;BME280;10650;51.528;6.748;2023-01-28T06:32:54;102774.78;;;3.24;61.20
20983;BME280;10650;51.528;6.748;2023-01-28T06:35:23;102768.72;;;3.26;61.53
20983;BME280;10650;51.528;6.748;2023-01-28T06:37:51;102763.28;;;3.23;61.16
20983;BME280;10650;51.528;6.748;2023-01-28T06:40:20;102764.78;;;3.18;60.98
20983;BME280;10650;51.528;6.748;2023-01-28T06:42:49;102770.72;;;3.14;60.51
20983;BME280;10650;51.528;6.748;2023-01-28T06:45:17;102763.47;;;3.10;60.68
20983;BME280;10650;51.528;6.748;2023-01-28T06:47:45;102771.06;;;3.20;61.31
20983;BME280;10650;51.528;6.748;2023-01-28T06:50:12;102772.94;;;3.23;60.87
20983;BME280;10650;51.528;6.748;2023-01-28T06:52:40;102777.50;;;3.25;61.17
20983;BME280;10650;51.528;6.748;2023-01-28T06:55:08;102784.56;;;3.26;60.79
20983;BME280;10650;51.528;6.748;2023-01-28T06:57:37;102786.09;;;3.21;61.01
20983;BME280;10650;51.528;6.748;2023-01-28T07:00:08;102780.13;;;3.09;60.83
20983;BME280;10650;51.528;6.748;2023-01-28T07:02:36;102783.50;;;3.06;61.50
20983;BME280;10650;51.528;6.748;2023-01-28T07:05:05;102783.78;;;3.11;61.70
20983;BME280;10650;51.528;6.748;2023-01-28T07:07:33;102780.28;;;3.12;61.53
20983;BME280;10650;51.528;6.748;2023-01-28T07:10:00;102792.44;;;3.08;61.78
20983;BME280;10650;51.528;6.748;2023-01-28T07:12:28;102785.47;;;3.10;61.81
20983;BME280;10650;51.528;6.748;2023-01-28T07:14:56;102782.13;;;3.13;61.88
20983;BME280;10650;51.528;6.748;2023-01-28T07:17:25;102782.03;;;3.11;61.33
20983;BME280;10650;51.528;6.748;2023-01-28T07:19:53;102781.13;;;3.11;61.67
20983;BME280;10650;51.528;6.748;2023-01-28T07:22:20;102776.75;;;3.11;61.44
20983;BME280;10650;51.528;6.748;2023-01-28T07:24:48;102785.66;;;3.14;61.13
20983;BME280;10650;51.528;6.748;2023-01-28T07:27:16;102779.31;;;3.10;60.95
20983;BME280;10650;51.528;6.748;2023-01-28T07:29:43;102781.94;;;3.10;60.90
20983;BME280;10650;51.528;6.748;2023-01-28T07:32:11;102784.16;;;3.02;60.58
20983;BME280;10650;51.528;6.748;2023-01-28T07:34:40;102789.28;;;2.99;60.70
20983;BME280;10650;51.528;6.748;2023-01-28T07:37:08;102785.91;;;3.02;60.65
20983;BME280;10650;51.528;6.748;2023-01-28T07:39:36;102777.50;;;2.92;60.40
20983;BME280;10650;51.528;6.748;2023-01-28T07:42:04;102784.84;;;2.98;60.66
20983;BME280;10650;51.528;6.748;2023-01-28T07:44:32;102786.72;;;3.01;59.90
20983;BME280;10650;51.528;6.748;2023-01-28T07:47:01;102800.13;;;3.04;60.16
20983;BME280;10650;51.528;6.748;2023-01-28T07:49:29;102799.19;;;3.03;59.89
20983;BME280;10650;51.528;6.748;2023-01-28T07:51:59;102807.09;;;3.03;60.33
20983;BME280;10650;51.528;6.748;2023-01-28T07:54:27;102815.34;;;3.09;60.71
20983;BME280;10650;51.528;6.748;2023-01-28T07:56:54;102830.56;;;3.14;60.53
20983;BME280;10650;51.528;6.748;2023-01-28T07:59:22;102839.13;;;3.09;60.65
20983;BME280;10650;51.528;6.748;2023-01-28T08:01:50;102834.72;;;2.93;60.68
20983;BME280;10650;51.528;6.748;2023-01-28T08:04:20;102821.53;;;2.93;60.34
20983;BME280;10650;51.528;6.748;2023-01-28T08:06:49;102827.81;;;2.96;60.64
20983;BME280;10650;51.528;6.748;2023-01-28T08:09:19;102835.19;;;3.01;59.97
20983;BME280;10650;51.528;6.748;2023-01-28T08:11:46;102823.69;;;3.01;59.57
20983;BME280;10650;51.528;6.748;2023-01-28T08:14:14;102818.88;;;2.93;60.02
20983;BME280;10650;51.528;6.748;2023-01-28T08:16:42;102828.81;;;2.98;60.14
20983;BME280;10650;51.528;6.748;2023-01-28T08:19:10;102826.53;;;3.04;59.89
20983;BME280;10650;51.528;6.748;2023-01-28T08:21:38;102819.75;;;3.09;60.09
20983;BME280;10650;51.528;6.748;2023-01-28T08:24:06;102833.13;;;3.12;60.14
20983;BME280;10650;51.528;6.748;2023-01-28T08:26:35;102837.75;;;3.16;59.96
20983;BME280;10650;51.528;6.748;2023-01-28T08:29:03;102836.84;;;3.16;59.52
20983;BME280;10650;51.528;6.748;2023-01-28T08:31:33;102839.56;;;3.17;59.64
20983;BME280;10650;51.528;6.748;2023-01-28T08:34:01;102863.59;;;3.05;59.67
20983;BME280;10650;51.528;6.748;2023-01-28T08:36:28;102860.94;;;3.05;59.76
20983;BME280;10650;51.528;6.748;2023-01-28T08:38:56;102862.81;;;3.08;59.78
20983;BME280;10650;51.528;6.748;2023-01-28T08:41:24;102868.03;;;3.06;59.22
20983;BME280;10650;51.528;6.748;2023-01-28T08:43:53;102883.13;;;3.09;59.36
20983;BME280;10650;51.528;6.748;2023-01-28T08:46:21;102877.19;;;3.13;58.91
20983;BME280;10650;51.528;6.748;2023-01-28T08:48:49;102885.28;;;3.16;58.65
20983;BME280;10650;51.528;6.748;2023-01-28T08:51:17;102901.53;;;3.07;58.93
20983;BME280;10650;51.528;6.748;2023-01-28T08:53:44;102899.03;;;2.94;58.99
20983;BME280;10650;51.528;6.748;2023-01-28T08:56:15;102891.03;;;2.92;59.04
20983;BME280;10650;51.528;6.748;2023-01-28T08:58:43;102898.09;;;2.93;59.03
20983;BME280;10650;51.528;6.748;2023-01-28T09:01:12;102902.28;;;3.05;58.79
20983;BME280;10650;51.528;6.748;2023-01-28T09:03:40;102905.63;;;3.17;59.06
20983;BME280;10650;51.528;6.748;2023-01-28T09:06:07;102902.50;;;3.24;58.51
20983;BME280;10650;51.528;6.748;2023-01-28T09:08:35;102910.41;;;3.24;58.52
20983;BME280;10650;51.528;6.748;2023-01-28T09:11:03;102905.38;;;3.29;58.44
20983;BME280;10650;51.528;6.748;2023-01-28T09:13:31;102906.41;;;3.31;59.01
20983;BME280;10650;51.528;6.748;2023-01-28T09:15:59;102908.78;;;3.43;59.19
20983;BME280;10650;51.528;6.748;2023-01-28T09:18:28;102907.28;;;3.48;59.01
20983;BME280;10650;51.528;6.748;2023-01-28T09:20:56;102910.50;;;3.42;58.57
20983;BME280;10650;51.528;6.748;2023-01-28T09:23:24;102912.50;;;3.46;58.90
20983;BME280;10650;51.528;6.748;2023-01-28T09:25:59;102915.22;;;3.48;58.54
20983;BME280;10650;51.528;6.748;2023-01-28T09:28:26;102924.91;;;3.47;58.60
20983;BME280;10650;51.528;6.748;2023-01-28T09:31:00;102920.34;;;3.45;58.41
20983;BME280;10650;51.528;6.748;2023-01-28T09:33:30;102918.56;;;3.44;58.67
20983;BME280;10650;51.528;6.748;2023-01-28T09:35:59;102922.16;;;3.46;59.27
20983;BME280;10650;51.528;6.748;2023-01-28T09:38:28;102931.47;;;3.39;59.17
20983;BME280;10650;51.528;6.748;2023-01-28T09:40:56;102929.69;;;3.38;58.89
20983;BME280;10650;51.528;6.748;2023-01-28T09:43:40;102926.47;;;3.44;59.64
20983;BME280;10650;51.528;6.748;2023-01-28T09:46:12;102928.34;;;3.46;59.84
20983;BME280;10650;51.528;6.748;2023-01-28T09:48:44;102922.34;;;3.49;59.33
20983;BME280;10650;51.528;6.748;2023-01-28T09:51:25;102924.72;;;3.44;59.37
20983;BME280;10650;51.528;6.748;2023-01-28T09:53:54;102933.72;;;3.48;59.08
20983;BME280;10650;51.528;6.748;2023-01-28T09:56:25;102928.34;;;3.46;59.18
20983;BME280;10650;51.528;6.748;2023-01-28T09:58:56;102925.63;;;3.28;58.95
20983;BME280;10650;51.528;6.748;2023-01-28T10:01:36;102932.28;;;3.22;59.50
20983;BME280;10650;51.528;6.748;2023-01-28T10:04:17;102934.03;;;3.38;59.79
20983;BME280;10650;51.528;6.748;2023-01-28T10:06:55;102920.88;;;3.54;59.66
20983;BME280;10650;51.528;6.748;2023-01-28T10:09:35;102924.84;;;3.62;59.56
20983;BME280;10650;51.528;6.748;2023-01-28T10:12:12;102922.28;;;3.64;58.99
20983;BME280;10650;51.528;6.748;2023-01-28T10:14:52;102910.38;;;3.72;59.28
20983;BME280;10650;51.528;6.748;2023-01-28T10:17:26;102896.91;;;3.68;58.56
20983;BME280;10650;51.528;6.748;2023-01-28T10:19:59;102914.75;;;3.72;58.45
20983;BME280;10650;51.528;6.748;2023-01-28T10:22:33;102917.28;;;3.87;58.68
20983;BME280;10650;51.528;6.748;2023-01-28T10:25:04;102908.50;;;3.70;58.42
20983;BME280;10650;51.528;6.748;2023-01-28T10:27:35;102915.00;;;3.76;58.44
20983;BME280;10650;51.528;6.748;2023-01-28T10:30:15;102921.28;;;3.78;58.19
20983;BME280;10650;51.528;6.748;2023-01-28T10:32:49;102922.44;;;3.84;58.33
20983;BME280;10650;51.528;6.748;2023-01-28T10:35:19;102917.72;;;3.78;58.01
20983;BME280;10650;51.528;6.748;2023-01-28T10:37:48;102918.28;;;3.72;58.27
20983;BME280;10650;51.528;6.748;2023-01-28T10:40:17;102923.03;;;3.61;58.10
20983;BME280;10650;51.528;6.748;2023-01-28T10:42:45;102925.09;;;3.67;58.49
20983;BME280;10650;51.528;6.748;2023-01-28T10:45:17;102921.19;;;3.60;58.28
20983;BME280;10650;51.528;6.748;2023-01-28T10:47:50;102935.38;;;3.46;58.51
20983;BME280;10650;51.528;6.748;2023-01-28T10:50:23;102944.06;;;3.43;58.59
20983;BME280;10650;51.528;6.748;2023-01-28T10:52:53;102934.03;;;3.38;58.52
20983;BME280;10650;51.528;6.748;2023-01-28T10:55:22;102933.97;;;3.36;58.54
20983;BME280;10650;51.528;6.748;2023-01-28T10:57:51;102940.66;;;3.46;58.93
20983;BME280;10650;51.528;6.748;2023-01-28T11:00:25;102934.25;;;3.57;58.20
20983;BME280;10650;51.528;6.748;2023-01-28T11:02:53;102938.81;;;3.60;58.00
20983;BME280;10650;51.528;6.748;2023-01-28T11:05:27;102950.63;;;3.35;57.96
20983;BME280;10650;51.528;6.748;2023-01-28T11:08:03;102953.34;;;3.20;59.30
20983;BME280;10650;51.528;6.748;2023-01-28T11:10:33;102948.19;;;2.92;59.49
20983;BME280;10650;51.528;6.748;2023-01-28T11:13:03;102943.22;;;2.97;59.59
20983;BME280;10650;51.528;6.748;2023-01-28T11:15:32;102947.72;;;2.99;59.89
20983;BME280;10650;51.528;6.748;2023-01-28T11:18:01;102944.53;;;3.05;59.82
20983;BME280;10650;51.528;6.748;2023-01-28T11:20:37;102947.06;;;3.18;59.81
20983;BME280;10650;51.528;6.748;2023-01-28T11:23:17;102940.34;;;3.08;59.13
20983;BME280;10650;51.528;6.748;2023-01-28T11:25:46;102943.47;;;3.01;59.45
20983;BME280;10650;51.528;6.748;2023-01-28T11:28:17;102941.03;;;3.21;58.84
20983;BME280;10650;51.528;6.748;2023-01-28T11:30:49;102937.53;;;3.37;59.56
20983;BME280;10650;51.528;6.748;2023-01-28T11:33:21;102946.53;;;3.40;58.66
20983;BME280;10650;51.528;6.748;2023-01-28T11:35:55;102941.41;;;3.43;58.15
20983;BME280;10650;51.528;6.748;2023-01-28T11:38:24;102936.84;;;3.41;58.08
20983;BME280;10650;51.528;6.748;2023-01-28T11:40:54;102944.78;;;3.41;57.66
20983;BME280;10650;51.528;6.748;2023-01-28T11:43:23;102946.44;;;3.39;56.96
20983;BME280;10650;51.528;6.748;2023-01-28T11:45:58;102934.38;;;3.27;57.43
20983;BME280;10650;51.528;6.748;2023-01-28T11:48:36;102935.66;;;3.19;57.36
20983;BME280;10650;51.528;6.748;2023-01-28T11:51:19;102930.84;;;3.12;57.64
20983;BME280;10650;51.528;6.748;2023-01-28T11:54:15;102911.88;;;3.19;57.89
20983;BME280;10650;51.528;6.748;2023-01-28T11:57:00;102900.25;;;3.32;57.91
20983;BME280;10650;51.528;6.748;2023-01-28T11:59:39;102896.84;;;3.50;57.42
20983;BME280;10650;51.528;6.748;2023-01-28T12:02:22;102898.13;;;3.58;56.98
20983;BME280;10650;51.528;6.748;2023-01-28T12:05:07;102896.91;;;3.51;57.24
20983;BME280;10650;51.528;6.748;2023-01-28T12:07:47;102882.69;;;3.49;56.83
20983;BME280;10650;51.528;6.748;2023-01-28T12:10:25;102885.34;;;3.49;56.29
20983;BME280;10650;51.528;6.748;2023-01-28T12:13:15;102878.47;;;3.36;56.76
20983;BME280;10650;51.528;6.748;2023-01-28T12:19:02;102893.59;;;3.39;56.96
20983;BME280;10650;51.528;6.748;2023-01-28T12:21:44;102884.44;;;3.49;56.96
20983;BME280;10650;51.528;6.748;2023-01-28T12:24:28;102870.56;;;3.53;56.65
20983;BME280;10650;51.528;6.748;2023-01-28T12:27:07;102867.56;;;3.46;56.61
20983;BME280;10650;51.528;6.748;2023-01-28T12:29:41;102845.59;;;3.47;56.53
20983;BME280;10650;51.528;6.748;2023-01-28T12:32:27;102831.41;;;3.45;56.62
20983;BME280;10650;51.528;6.748;2023-01-28T12:35:18;102807.19;;;3.38;56.49
20983;BME280;10650;51.528;6.748;2023-01-28T12:37:58;102798.63;;;3.25;57.13
20983;BME280;10650;51.528;6.748;2023-01-28T12:40:52;102787.41;;;3.29;57.59
20983;BME280;10650;51.528;6.748;2023-01-28T12:43:32;102786.22;;;3.41;57.76
20983;BME280;10650;51.528;6.748;2023-01-28T12:46:10;102787.84;;;3.55;58.47
20983;BME280;10650;51.528;6.748;2023-01-28T12:48:42;102787.19;;;3.59;57.78
20983;BME280;10650;51.528;6.748;2023-01-28T12:51:14;102801.66;;;3.66;58.24
20983;BME280;10650;51.528;6.748;2023-01-28T12:53:48;102817.91;;;3.74;57.83
20983;BME280;10650;51.528;6.748;2023-01-28T12:56:23;102817.56;;;3.84;57.77
20983;BME280;10650;51.528;6.748;2023-01-28T12:58:56;102831.03;;;3.89;56.69
20983;BME280;10650;51.528;6.748;2023-01-28T13:01:29;102839.84;;;3.89;56.92
20983;BME280;10650;51.528;6.748;2023-01-28T13:04:05;102828.03;;;3.99;56.98
20983;BME280;10650;51.528;6.748;2023-01-28T13:06:40;102816.09;;;4.07;57.45
20983;BME280;10650;51.528;6.748;2023-01-28T13:09:15;102827.75;;;4.11;56.79
20983;BME280;10650;51.528;6.748;2023-01-28T13:11:46;102830.91;;;4.04;56.34
20983;BME280;10650;51.528;6.748;2023-01-28T13:14:15;102823.72;;;4.01;55.99
20983;BME280;10650;51.528;6.748;2023-01-28T13:16:43;102824.81;;;3.88;56.28
20983;BME280;10650;51.528;6.748;2023-01-28T13:19:22;102815.53;;;3.78;56.39
20983;BME280;10650;51.528;6.748;2023-01-28T13:21:50;102827.88;;;3.79;57.39
20983;BME280;10650;51.528;6.748;2023-01-28T13:24:21;102836.00;;;3.83;56.73
20983;BME280;10650;51.528;6.748;2023-01-28T13:26:52;102841.63;;;3.72;56.40
20983;BME280;10650;51.528;6.748;2023-01-28T13:29:28;102853.63;;;3.66;56.54